Time;durP1;ratioP1;P1;durP2;ratioP2;P2;SDS_P1;SDS_P2;PMS_P1;PMS_P2;Temp;Humidity;BMP_temperature;BMP_pressure;BME280_temperature;BME280_humidity;BME280_pressure;Samples;Min_cycle;Max_cycle;Signal;HPM_P1;HPM_P2
2023/07/28 00:01:32;;;;;;;;;2.50;2.00;;;;;21.63;67.43;100414.91;5100155;27;45321;-73
2023/07/28 00:03:58;;;;;;;;;1.50;1.50;;;;;21.69;67.53;100424.81;5100716;27;45399;-73
2023/07/28 00:06:23;;;;;;;;;3.00;2.00;;;;;21.50;67.51;100400.44;5100684;27;45570;-72
2023/07/28 00:08:49;;;;;;;;;2.75;1.75;;;;;21.58;67.23;100407.44;5100578;27;46483;-71
2023/07/28 00:11:15;;;;;;;;;1.50;1.50;;;;;21.66;67.61;100419.84;5100678;27;45580;-72
2023/07/28 00:13:41;;;;;;;;;0.75;0.75;;;;;21.69;67.12;100422.13;5100569;27;45314;-72
2023/07/28 00:16:08;;;;;;;;;1.00;1.00;;;;;20.80;67.20;100272.78;5100680;27;45174;-73
2023/07/28 00:18:33;;;;;;;;;1.00;0.00;;;;;21.64;67.19;100398.44;5100178;27;45721;-72
2023/07/28 00:20:59;;;;;;;;;1.75;1.75;;;;;21.69;67.06;100405.88;5100384;27;46347;-71
2023/07/28 00:23:24;;;;;;;;;2.75;1.75;;;;;21.64;67.08;100401.16;5100373;27;45445;-73
2023/07/28 00:25:50;;;;;;;;;1.75;1.75;;;;;21.68;67.15;100417.75;5100623;27;45307;-70
2023/07/28 00:28:15;;;;;;;;;1.00;1.00;;;;;21.64;67.39;100411.97;5099753;27;45624;-73
2023/07/28 00:30:41;;;;;;;;;1.75;1.75;;;;;20.48;67.21;100215.34;5100284;27;45421;-74
2023/07/28 00:33:06;;;;;;;;;3.00;2.00;;;;;21.70;67.41;100411.06;5100170;27;45330;-73
2023/07/28 00:35:32;;;;;;;;;2.50;2.00;;;;;21.67;67.19;100408.81;5100466;27;45358;-72
2023/07/28 00:37:57;;;;;;;;;1.00;1.00;;;;;21.66;67.26;100404.47;5100025;27;46386;-72
2023/07/28 00:40:23;;;;;;;;;2.25;1.00;;;;;21.64;67.27;100405.72;5100068;27;45300;-72
2023/07/28 00:42:49;;;;;;;;;1.50;1.00;;;;;21.61;67.23;100396.16;5099868;27;45373;-72
2023/07/28 00:45:14;;;;;;;;;2.00;2.00;;;;;21.54;67.05;100379.19;5100272;27;45243;-71
2023/07/28 00:47:40;;;;;;;;;0.25;0.25;;;;;21.72;66.93;100413.53;5099772;27;46434;-71
2023/07/28 00:50:08;;;;;;;;;1.00;1.00;;;;;21.56;67.21;100390.59;5099790;27;45397;-72
2023/07/28 00:52:34;;;;;;;;;2.00;1.00;;;;;21.64;67.10;100397.63;5099815;27;45223;-72
2023/07/28 00:55:00;;;;;;;;;1.50;1.50;;;;;21.39;67.25;100374.13;5098538;27;45398;-73
2023/07/28 00:57:25;;;;;;;;;0.00;0.00;;;;;21.67;67.42;100406.09;5099553;27;46543;-72
2023/07/28 00:59:51;;;;;;;;;4.00;1.75;;;;;21.18;67.33;100331.25;5099761;27;45281;-72
2023/07/28 01:02:16;;;;;;;;;1.00;1.00;;;;;21.55;67.60;100403.31;5099711;27;45424;-71
2023/07/28 01:04:42;;;;;;;;;3.00;0.25;;;;;21.59;67.72;100398.28;5099939;27;45525;-72
2023/07/28 01:07:07;;;;;;;;;1.00;1.00;;;;;21.71;67.36;100412.72;5098315;27;48342;-72
2023/07/28 01:09:43;;;;;;;;;1.00;1.00;;;;;21.60;67.73;100399.09;5099336;27;45490;-72
2023/07/28 01:12:11;;;;;;;;;2.00;1.00;;;;;21.66;67.86;100409.88;5099300;27;45414;-71
2023/07/28 01:14:37;;;;;;;;;1.00;1.00;;;;;21.64;67.56;100397.63;5099864;27;45449;-72
2023/07/28 01:17:02;;;;;;;;;1.00;1.00;;;;;21.59;68.05;100392.03;5099339;27;45612;-72
2023/07/28 01:19:28;;;;;;;;;1.00;1.00;;;;;21.63;68.20;100401.38;5099571;27;45469;-72
2023/07/28 01:22:12;;;;;;;;;4.25;2.25;;;;;21.61;67.84;100411.56;5099548;27;45762;-72
2023/07/28 01:24:55;;;;;;;;;1.00;1.00;;;;;21.65;67.97;100419.03;5097505;27;65154;-72
2023/07/28 01:27:20;;;;;;;;;1.00;1.00;;;;;21.59;67.76;100405.56;5097687;27;47400;-71
2023/07/28 01:29:47;;;;;;;;;1.50;1.50;;;;;21.35;67.90;100364.00;5097987;27;46510;-72
2023/07/28 01:32:12;;;;;;;;;1.25;1.00;;;;;21.65;67.98;100408.22;5099406;27;45215;-71
2023/07/28 01:34:38;;;;;;;;;1.00;1.00;;;;;21.70;68.04;100408.34;5099347;27;45267;-73
2023/07/28 01:37:03;;;;;;;;;0.25;0.25;;;;;21.68;67.60;100418.59;5097773;27;46805;-72
2023/07/28 01:39:29;;;;;;;;;0.00;0.00;;;;;21.66;68.16;100409.88;5099190;27;45328;-72
2023/07/28 01:41:54;;;;;;;;;1.00;1.00;;;;;21.46;68.02;100384.91;5099405;27;45579;-71
2023/07/28 01:44:19;;;;;;;;;0.25;0.25;;;;;21.19;68.16;100339.16;5099135;27;45459;-72
2023/07/28 01:46:45;;;;;;;;;1.00;1.00;;;;;21.38;68.06;100367.06;5098542;27;56743;-72
2023/07/28 01:49:10;;;;;;;;;1.00;1.00;;;;;21.37;67.71;100351.91;5098722;27;57376;-72
2023/07/28 01:51:35;;;;;;;;;2.50;1.00;;;;;21.17;68.08;100324.19;5098618;27;57194;-72
2023/07/28 01:54:00;;;;;;;;;1.00;1.00;;;;;21.67;68.03;100402.56;5099403;27;45459;-71
2023/07/28 01:56:26;;;;;;;;;0.25;0.25;;;;;21.24;67.84;100325.84;5097900;27;63743;-72
2023/07/28 01:58:51;;;;;;;;;0.00;0.00;;;;;21.68;67.58;100391.53;5098572;27;45456;-72
2023/07/28 02:01:16;;;;;;;;;1.00;0.25;;;;;21.64;67.63;100384.91;5097479;27;45486;-71
2023/07/28 02:03:42;;;;;;;;;1.25;0.25;;;;;21.61;67.67;100373.69;5098919;27;45296;-71
2023/07/28 02:06:07;;;;;;;;;1.50;1.50;;;;;21.71;67.81;100395.66;5098345;27;52765;-71
2023/07/28 02:08:32;;;;;;;;;1.00;1.00;;;;;21.70;67.59;100399.41;5098125;27;45276;-71
2023/07/28 02:10:58;;;;;;;;;1.25;1.25;;;;;21.62;67.70;100389.69;5098050;27;60784;-71
2023/07/28 02:13:23;;;;;;;;;0.00;0.00;;;;;21.66;67.77;100399.03;5098390;27;48795;-71
2023/07/28 02:15:48;;;;;;;;;1.25;1.00;;;;;21.69;67.69;100398.59;5098047;27;63246;-72
2023/07/28 02:18:13;;;;;;;;;1.00;0.50;;;;;21.30;67.60;100339.50;5114459;27;45331;-72
2023/07/28 02:20:39;;;;;;;;;0.00;0.00;;;;;21.62;67.91;100392.41;5098136;27;58001;-71
2023/07/28 02:23:04;;;;;;;;;1.50;1.00;;;;;21.64;67.85;100394.91;5098837;27;45308;-72
2023/07/28 02:25:30;;;;;;;;;2.00;2.00;;;;;21.51;67.80;100364.25;5098462;27;46433;-71
2023/07/28 02:27:55;;;;;;;;;1.50;1.50;;;;;21.68;67.24;100396.09;5098354;27;45319;-71
2023/07/28 02:30:21;;;;;;;;;1.00;1.00;;;;;21.69;67.58;100389.66;5097473;27;45488;-72
2023/07/28 02:32:46;;;;;;;;;0.50;0.50;;;;;21.70;67.42;100392.13;5098970;27;45298;-71
2023/07/28 02:35:11;;;;;;;;;0.50;0.50;;;;;21.67;67.96;100395.28;5098420;27;45518;-72
2023/07/28 02:37:37;;;;;;;;;0.75;0.75;;;;;21.63;67.48;100382.44;5098451;27;46419;-72
2023/07/28 02:40:03;;;;;;;;;1.00;1.00;;;;;21.56;67.60;100369.78;5097874;27;55451;-73
2023/07/28 02:42:28;;;;;;;;;0.75;0.75;;;;;21.67;67.89;100394.47;5098743;27;45414;-72
2023/07/28 02:44:53;;;;;;;;;1.00;1.00;;;;;21.60;67.78;100383.69;5113919;27;47975;-72
2023/07/28 02:47:19;;;;;;;;;0.00;0.00;;;;;21.68;67.81;100388.00;5098092;27;45405;-72
2023/07/28 02:49:45;;;;;;;;;1.00;0.00;;;;;21.66;67.98;100384.69;5098458;27;45526;-72
2023/07/28 02:52:10;;;;;;;;;1.00;0.00;;;;;21.65;68.12;100385.75;5098526;27;45225;-74
2023/07/28 02:54:36;;;;;;;;;1.25;1.00;;;;;21.58;68.03;100376.84;5098018;27;45676;-72
2023/07/28 02:57:01;;;;;;;;;1.50;0.00;;;;;21.59;68.09;100378.50;5097822;27;51485;-72
2023/07/28 02:59:27;;;;;;;;;0.75;0.75;;;;;21.64;67.93;100390.31;5097904;27;45419;-71
2023/07/28 03:01:52;;;;;;;;;2.00;2.00;;;;;21.63;68.33;100393.25;5098238;27;45272;-73
2023/07/28 03:04:20;;;;;;;;;1.25;0.25;;;;;21.61;68.28;100384.50;5097765;27;47223;-72
2023/07/28 03:06:46;;;;;;;;;1.00;0.50;;;;;21.62;68.36;100403.22;5097850;27;45459;-72
2023/07/28 03:09:11;;;;;;;;;0.25;0.25;;;;;21.54;68.07;100387.31;5098060;27;45235;-72
2023/07/28 03:14:12;;;;;;;;;0.00;0.00;;;;;21.25;67.97;100335.59;5185329;22;46363;-72
2023/07/28 03:16:38;;;;;;;;;1.00;1.00;;;;;21.66;68.12;100403.63;5037137;28;45450;-72
2023/07/28 03:19:03;;;;;;;;;1.25;1.25;;;;;21.06;68.26;100295.22;5021380;28;45548;-71
2023/07/28 03:21:31;;;;;;;;;0.00;0.00;;;;;21.65;68.52;100402.81;5040604;28;48957;-72
2023/07/28 03:23:57;;;;;;;;;1.00;1.00;;;;;21.65;68.37;100401.97;5040394;28;46573;-71
2023/07/28 03:26:22;;;;;;;;;0.50;0.50;;;;;21.67;68.57;100413.41;5040123;28;50555;-72
2023/07/28 03:28:47;;;;;;;;;1.00;1.00;;;;;21.68;68.53;100412.34;5040499;28;45300;-71
2023/07/28 03:31:13;;;;;;;;;1.00;1.00;;;;;21.32;68.20;100349.03;5040730;28;46200;-71
2023/07/28 03:33:38;;;;;;;;;2.00;0.75;;;;;21.67;68.30;100405.28;5040221;28;45754;-72
2023/07/28 03:36:03;;;;;;;;;1.00;1.00;;;;;21.64;68.46;100392.22;5040389;28;45185;-72
2023/07/28 03:38:29;;;;;;;;;0.75;0.75;;;;;21.35;68.46;100345.06;5040243;28;45260;-73
2023/07/28 03:40:54;;;;;;;;;0.25;0.25;;;;;21.65;68.76;100393.84;5040167;28;46770;-72
2023/07/28 03:43:21;;;;;;;;;1.50;0.25;;;;;21.67;68.61;100400.69;5039718;28;45650;-72
2023/07/28 03:45:46;;;;;;;;;1.25;1.25;;;;;21.61;68.79;100389.94;5040218;28;45338;-72
2023/07/28 03:48:11;;;;;;;;;0.00;0.00;;;;;21.64;68.58;100389.50;5040190;28;45282;-73
2023/07/28 03:50:36;;;;;;;;;1.00;1.00;;;;;21.54;68.91;100371.06;5039776;28;55244;-71
2023/07/28 03:53:02;;;;;;;;;1.00;1.00;;;;;21.56;69.85;100379.78;5039897;28;46437;-71
2023/07/28 03:55:27;;;;;;;;;0.00;0.00;;;;;21.50;70.15;100373.41;5040084;28;45482;-72
2023/07/28 03:57:53;;;;;;;;;2.00;2.00;;;;;21.59;70.08;100381.22;5037986;28;56598;-71
2023/07/28 04:00:18;;;;;;;;;2.25;1.00;;;;;21.44;70.63;100354.56;5040052;28;45431;-71
2023/07/28 04:02:43;;;;;;;;;2.25;2.25;;;;;21.42;70.81;100357.44;5038424;28;47509;-72
2023/07/28 04:05:09;;;;;;;;;1.50;1.00;;;;;21.56;71.39;100380.59;5039659;28;45351;-72
2023/07/28 04:07:34;;;;;;;;;1.00;1.00;;;;;21.58;71.92;100380.38;5040034;28;45331;-72
2023/07/28 04:10:00;;;;;;;;;0.75;0.00;;;;;21.44;72.01;100363.50;5022044;28;45405;-71
2023/07/28 04:12:25;;;;;;;;;0.00;0.00;;;;;21.45;72.33;100373.25;5039222;28;45478;-72
2023/07/28 04:14:50;;;;;;;;;1.50;1.50;;;;;21.33;72.25;100349.88;5039389;28;45384;-71
2023/07/28 04:17:16;;;;;;;;;0.00;0.00;;;;;21.43;72.55;100367.25;5039896;28;45329;-71
2023/07/28 04:19:41;;;;;;;;;1.00;0.00;;;;;21.19;72.15;100332.91;5040023;28;45494;-73
2023/07/28 04:22:06;;;;;;;;;1.00;1.00;;;;;21.41;72.57;100368.50;5039557;28;46003;-71
2023/07/28 04:24:32;;;;;;;;;1.00;1.00;;;;;21.36;72.48;100368.34;5039718;28;45329;-71
2023/07/28 04:26:58;;;;;;;;;2.50;1.00;;;;;21.44;73.10;100377.00;5039587;28;45315;-71
2023/07/28 04:29:23;;;;;;;;;2.75;0.00;;;;;21.45;72.85;100369.72;5039483;28;45194;-72
2023/07/28 04:31:49;;;;;;;;;1.00;1.00;;;;;21.33;72.89;100355.28;5039107;28;45832;-71
2023/07/28 04:34:14;;;;;;;;;1.75;1.00;;;;;21.10;72.79;100320.75;5039411;28;45291;-71
2023/07/28 04:36:39;;;;;;;;;1.75;1.75;;;;;21.38;73.27;100386.00;5021629;28;45294;-73
2023/07/28 04:39:05;;;;;;;;;0.25;0.25;;;;;21.37;73.41;100389.75;5039275;28;45935;-71
2023/07/28 04:41:30;;;;;;;;;1.50;1.50;;;;;21.27;73.22;100373.22;5038906;28;46440;-74
2023/07/28 04:43:56;;;;;;;;;1.00;1.00;;;;;21.22;73.62;100365.75;5038329;28;65818;-73
2023/07/28 04:46:21;;;;;;;;;2.00;1.00;;;;;21.22;73.99;100371.16;5039278;28;45490;-72
2023/07/28 04:48:46;;;;;;;;;1.00;1.00;;;;;21.33;74.05;100382.31;5021215;28;45599;-72
2023/07/28 04:51:12;;;;;;;;;1.00;0.00;;;;;21.37;74.01;100391.63;5038191;28;71969;-72
2023/07/28 04:53:37;;;;;;;;;1.50;1.50;;;;;21.24;74.05;100365.56;5039088;28;45237;-72
2023/07/28 04:56:03;;;;;;;;;2.00;1.00;;;;;21.28;73.95;100377.59;5039024;28;46080;-72
2023/07/28 04:58:29;;;;;;;;;1.50;0.75;;;;;21.29;73.84;100390.06;5039119;28;45285;-72
2023/07/28 05:00:54;;;;;;;;;2.00;1.00;;;;;21.18;74.06;100377.22;5039015;28;45460;-72
2023/07/28 05:03:19;;;;;;;;;1.25;1.00;;;;;21.18;73.84;100369.13;5038759;28;45327;-72
2023/07/28 05:05:45;;;;;;;;;1.00;0.75;;;;;21.27;74.08;100384.03;5039108;28;45462;-73
2023/07/28 05:08:11;;;;;;;;;4.00;4.00;;;;;21.23;74.20;100375.53;5039019;28;45256;-73
2023/07/28 05:10:36;;;;;;;;;0.00;0.00;;;;;21.37;73.94;100400.56;5038497;28;45526;-73
2023/07/28 05:13:04;;;;;;;;;0.50;0.50;;;;;21.36;74.55;100395.38;5038399;28;45435;-73
2023/07/28 05:15:29;;;;;;;;;1.00;1.00;;;;;21.39;74.42;100398.47;5038836;28;45251;-73
2023/07/28 05:17:55;;;;;;;;;1.00;1.00;;;;;21.32;74.23;100381.50;5038970;28;45288;-71
2023/07/28 05:20:20;;;;;;;;;1.00;1.00;;;;;20.98;74.40;100331.47;5020810;28;47673;-72
2023/07/28 05:22:45;;;;;;;;;2.00;1.00;;;;;21.38;74.48;100391.41;5038671;28;45503;-72
2023/07/28 05:25:11;;;;;;;;;1.00;0.00;;;;;21.34;73.86;100394.78;5038265;28;55062;-72
2023/07/28 05:27:36;;;;;;;;;0.00;0.00;;;;;21.29;74.42;100392.75;5038622;28;45494;-73
2023/07/28 05:30:01;;;;;;;;;1.00;0.00;;;;;21.34;74.59;100395.63;5038569;28;45245;-73
2023/07/28 05:32:27;;;;;;;;;0.00;0.00;;;;;21.02;74.22;100353.44;5038362;28;45475;-73
2023/07/28 05:34:52;;;;;;;;;0.00;0.00;;;;;21.26;73.97;100379.69;5038102;28;50853;-72
2023/07/28 05:37:17;;;;;;;;;1.00;1.00;;;;;21.37;74.01;100405.97;5037990;28;49083;-72
2023/07/28 05:39:44;;;;;;;;;0.00;0.00;;;;;21.37;74.54;100392.47;5038227;28;45967;-72
2023/07/28 05:42:09;;;;;;;;;0.25;0.25;;;;;21.35;74.23;100386.44;5037000;28;45469;-72
2023/07/28 05:44:34;;;;;;;;;0.00;0.00;;;;;21.36;74.47;100398.91;5038380;28;45232;-73
2023/07/28 05:47:00;;;;;;;;;0.00;0.00;;;;;21.34;74.42;100378.56;5038642;28;45242;-71
2023/07/28 05:49:25;;;;;;;;;0.00;0.00;;;;;21.44;74.51;100387.84;5038273;28;46215;-73
2023/07/28 05:51:50;;;;;;;;;2.75;2.00;;;;;21.47;74.67;100394.66;5038079;28;45331;-71
2023/07/28 05:54:16;;;;;;;;;0.00;0.00;;;;;21.47;74.44;100390.09;5038451;28;45336;-72
2023/07/28 05:56:42;;;;;;;;;3.00;2.00;;;;;21.47;74.19;100398.19;5038231;28;45345;-72
2023/07/28 05:59:07;;;;;;;;;0.00;0.00;;;;;21.38;74.41;100379.75;5038007;28;45629;-71
2023/07/28 06:01:33;;;;;;;;;0.00;0.00;;;;;21.48;74.01;100396.31;5037958;28;45451;-72
2023/07/28 06:03:59;;;;;;;;;0.25;0.25;;;;;21.49;74.07;100409.63;5038042;28;45252;-73
2023/07/28 06:06:27;;;;;;;;;0.00;0.00;;;;;21.42;74.19;100387.19;5038241;28;45213;-74
2023/07/28 06:08:53;;;;;;;;;0.75;0.00;;;;;21.48;74.24;100402.56;5038031;28;46518;-73
2023/07/28 06:11:18;;;;;;;;;1.00;0.00;;;;;21.30;74.36;100372.78;5037814;28;45403;-73
2023/07/28 06:13:45;;;;;;;;;0.00;0.00;;;;;21.34;74.44;100373.16;5037196;28;45385;-72
2023/07/28 06:16:11;;;;;;;;;0.25;0.00;;;;;21.30;74.32;100367.38;5038270;28;45483;-72
2023/07/28 06:18:37;;;;;;;;;0.00;0.00;;;;;21.45;74.26;100386.78;5037745;28;46358;-72
2023/07/28 06:21:02;;;;;;;;;0.25;0.25;;;;;21.62;73.99;100421.34;5037608;28;45301;-73
2023/07/28 06:23:28;;;;;;;;;0.75;0.75;;;;;21.61;73.97;100411.56;5038171;28;45388;-72
2023/07/28 06:25:54;;;;;;;;;0.00;0.00;;;;;21.37;74.43;100383.53;5038156;28;45571;-72
2023/07/28 06:28:20;;;;;;;;;0.00;0.00;;;;;21.53;74.16;100399.19;5036086;28;47484;-72
2023/07/28 06:30:45;;;;;;;;;0.00;0.00;;;;;21.60;74.27;100415.31;5037436;28;45394;-71
2023/07/28 06:33:11;;;;;;;;;2.50;2.00;;;;;21.61;74.15;100419.69;5037567;28;45452;-72
2023/07/28 06:35:36;;;;;;;;;0.00;0.00;;;;;20.75;74.41;100271.81;5037767;28;45250;-72
2023/07/28 06:38:02;;;;;;;;;1.00;1.00;;;;;21.61;74.13;100425.09;5037396;28;46601;-71
2023/07/28 06:40:27;;;;;;;;;4.00;3.00;;;;;21.60;74.16;100412.63;5037338;28;45275;-73
2023/07/28 06:42:52;;;;;;;;;0.00;0.00;;;;;21.48;74.01;100396.31;5037260;28;45380;-73
2023/07/28 06:45:18;;;;;;;;;0.75;0.75;;;;;21.65;74.22;100431.75;5037302;28;45138;-72
2023/07/28 06:47:43;;;;;;;;;0.00;0.00;;;;;21.62;74.32;100419.47;5035695;28;47255;-72
2023/07/28 06:50:10;;;;;;;;;0.25;0.25;;;;;21.66;73.76;100434.22;5035597;28;46067;-71
2023/07/28 06:52:36;;;;;;;;;1.00;1.00;;;;;21.63;73.87;100431.97;5036635;28;45364;-71
2023/07/28 06:55:01;;;;;;;;;2.00;2.00;;;;;21.60;74.32;100426.16;5037182;28;45357;-74
2023/07/28 06:57:27;;;;;;;;;2.75;2.00;;;;;21.21;74.03;100374.06;5036596;28;46175;-72
2023/07/28 06:59:52;;;;;;;;;1.25;1.25;;;;;21.64;74.52;100443.59;5036887;28;45528;-74
2023/07/28 07:02:17;;;;;;;;;0.00;0.00;;;;;21.68;74.17;100439.41;5037154;28;45743;-72
2023/07/28 07:04:44;;;;;;;;;1.00;1.00;;;;;21.24;74.03;100384.50;5036934;28;45304;-73
2023/07/28 07:07:09;;;;;;;;;3.00;3.00;;;;;21.59;74.36;100438.03;5036450;28;56203;-72
2023/07/28 07:09:35;;;;;;;;;1.75;1.00;;;;;21.56;74.38;100437.41;5036815;28;45158;-72
2023/07/28 07:12:00;;;;;;;;;1.75;1.50;;;;;21.41;74.61;100415.28;5036856;28;45455;-72
2023/07/28 07:14:26;;;;;;;;;3.75;1.00;;;;;21.49;74.65;100425.84;5018137;28;48417;-73
2023/07/28 07:16:51;;;;;;;;;0.50;0.50;;;;;21.50;74.73;100430.22;5036896;28;46467;-72
2023/07/28 07:19:16;;;;;;;;;0.25;0.25;;;;;21.65;74.92;100450.69;5036735;28;45411;-73
2023/07/28 07:21:44;;;;;;;;;1.00;1.00;;;;;21.52;75.11;100441.63;5036848;28;45232;-72
2023/07/28 07:24:10;;;;;;;;;2.00;1.00;;;;;21.65;74.73;100458.78;5018884;28;45518;-72
2023/07/28 07:26:35;;;;;;;;;1.50;1.00;;;;;21.62;75.19;100446.50;5036236;28;45781;-73
2023/07/28 07:29:00;;;;;;;;;1.75;0.00;;;;;21.42;75.30;100426.94;5036574;28;45412;-72
2023/07/28 07:31:26;;;;;;;;;1.00;1.00;;;;;21.43;75.14;100432.16;5018925;28;45315;-74
2023/07/28 07:33:51;;;;;;;;;0.00;0.00;;;;;21.54;75.69;100461.16;5036806;28;45293;-74
2023/07/28 07:36:18;;;;;;;;;0.00;0.00;;;;;21.18;75.69;100401.56;5018554;28;48648;-72
2023/07/28 07:38:48;;;;;;;;;1.00;1.00;;;;;21.63;75.99;100483.38;5018561;28;45878;-72
2023/07/28 07:41:20;;;;;;;;;0.00;0.00;;;;;21.63;76.16;100475.25;5018685;28;45296;-72
2023/07/28 07:43:47;;;;;;;;;0.75;0.25;;;;;21.56;76.69;100467.19;5018548;28;45260;-73
2023/07/28 07:46:13;;;;;;;;;2.75;1.50;;;;;21.60;76.96;100493.78;5036484;28;46072;-71
2023/07/28 07:48:38;;;;;;;;;2.50;2.00;;;;;21.58;76.93;100471.53;5036208;28;45404;-73
2023/07/28 07:51:04;;;;;;;;;46.33;38.00;;;;;21.61;77.19;100476.50;5036473;28;45604;-72
2023/07/28 07:53:29;;;;;;;;;2.75;1.25;;;;;21.62;77.27;100478.16;5036778;28;45499;-71
2023/07/28 07:55:54;;;;;;;;;3.00;3.00;;;;;21.43;77.13;100455.66;5034512;28;62304;-72
2023/07/28 07:58:20;;;;;;;;;1.25;1.00;;;;;21.46;77.08;100455.22;5036138;28;45402;-73
2023/07/28 08:00:45;;;;;;;;;5.25;3.00;;;;;21.60;77.01;100486.50;5036291;28;45525;-72
2023/07/28 08:03:11;;;;;;;;;0.00;0.00;;;;;21.51;77.17;100460.78;5018557;28;45315;-72
2023/07/28 08:05:37;;;;;;;;;8.00;8.00;;;;;21.51;77.28;100464.31;5019518;28;46493;-71
2023/07/28 08:08:02;;;;;;;;;2.00;1.00;;;;;21.54;77.15;100471.97;5039954;28;45407;-72
2023/07/28 08:10:28;;;;;;;;;1.00;0.25;;;;;21.62;77.07;100480.84;5039903;28;45497;-72
2023/07/28 08:12:55;;;;;;;;;0.75;0.75;;;;;20.92;77.59;100368.31;5039260;28;45451;-71
2023/07/28 08:15:20;;;;;;;;;3.00;3.00;;;;;21.54;77.43;100474.69;5039290;28;46827;-70
2023/07/28 08:17:45;;;;;;;;;1.00;1.00;;;;;21.22;77.11;100413.56;5039198;28;45384;-72
2023/07/28 08:20:12;;;;;;;;;0.00;0.00;;;;;21.29;77.27;100422.50;5038559;28;61398;-73
2023/07/28 08:22:37;;;;;;;;;0.75;0.25;;;;;21.69;77.03;100489.75;5039787;28;45228;-73
2023/07/28 08:25:04;;;;;;;;;0.00;0.00;;;;;21.65;77.26;100483.13;5039078;28;45784;-72
2023/07/28 08:27:29;;;;;;;;;0.00;0.00;;;;;21.67;77.15;100481.88;5039262;28;45381;-72
2023/07/28 08:29:57;;;;;;;;;0.00;0.00;;;;;21.75;77.59;100494.25;5039396;28;45542;-72
2023/07/28 08:32:22;;;;;;;;;1.00;1.00;;;;;21.78;77.26;100496.53;5039148;28;45510;-71
2023/07/28 08:34:48;;;;;;;;;2.75;1.00;;;;;21.61;76.86;100474.63;5039114;28;45395;-72
2023/07/28 08:37:13;;;;;;;;;0.75;0.00;;;;;21.76;76.69;100490.50;5039160;28;45386;-72
2023/07/28 08:39:39;;;;;;;;;0.00;0.00;;;;;21.80;77.00;100497.13;5021414;28;45487;-72
2023/07/28 08:42:05;;;;;;;;;0.00;0.00;;;;;21.78;77.08;100493.81;5038589;28;47423;-72
2023/07/28 08:44:32;;;;;;;;;0.00;0.00;;;;;21.84;77.22;100509.19;5039014;28;45278;-73
2023/07/28 08:46:58;;;;;;;;;0.00;0.00;;;;;21.88;77.39;100504.97;5038792;28;45466;-73
2023/07/28 08:49:24;;;;;;;;;0.00;0.00;;;;;21.80;77.22;100491.72;5039089;28;45273;-72
2023/07/28 08:51:50;;;;;;;;;0.00;0.00;;;;;21.80;77.06;100497.13;5021122;28;45425;-72
2023/07/28 08:54:16;;;;;;;;;0.00;0.00;;;;;21.89;76.88;100506.63;5020757;28;47530;-71
2023/07/28 08:56:44;;;;;;;;;1.00;1.00;;;;;21.90;77.43;100508.28;5038702;28;45419;-72
2023/07/28 08:59:10;;;;;;;;;1.50;0.00;;;;;21.69;77.68;100473.53;5037451;28;45459;-72
2023/07/28 09:01:40;;;;;;;;;0.00;0.00;;;;;21.93;77.21;100507.81;5021180;28;45462;-72
2023/07/28 09:04:12;;;;;;;;;1.00;1.00;;;;;21.64;77.45;100454.44;5038540;28;47188;-72
2023/07/28 09:06:38;;;;;;;;;0.00;0.00;;;;;21.98;77.33;100499.84;5038633;28;45318;-73
2023/07/28 09:09:07;;;;;;;;;0.25;0.00;;;;;22.00;77.43;100508.56;5038757;28;45453;-71
2023/07/28 09:11:32;;;;;;;;;0.50;0.00;;;;;21.88;77.63;100483.31;5038542;28;45488;-72
2023/07/28 09:14:00;;;;;;;;;1.50;0.50;;;;;22.04;76.98;100515.25;5037963;28;45459;-73
2023/07/28 09:16:26;;;;;;;;;0.00;0.00;;;;;22.03;77.29;100508.16;5038350;28;45308;-72
2023/07/28 09:19:04;;;;;;;;;1.00;1.00;;;;;22.07;77.35;100498.53;5038664;28;45258;-72
2023/07/28 09:21:29;;;;;;;;;0.00;0.00;;;;;22.11;77.67;100504.34;5038371;28;45510;-72
2023/07/28 09:23:55;;;;;;;;;0.75;0.75;;;;;22.03;77.86;100480.25;5038311;28;46357;-72
2023/07/28 09:26:20;;;;;;;;;0.50;0.50;;;;;22.17;77.75;100498.84;5038349;28;45616;-72
2023/07/28 09:28:46;;;;;;;;;0.00;0.00;;;;;22.26;77.40;100506.69;5038191;28;45497;-73
2023/07/28 09:31:11;;;;;;;;;0.50;0.00;;;;;22.25;77.81;100503.13;5038579;28;45354;-71
2023/07/28 09:33:38;;;;;;;;;1.00;1.00;;;;;22.33;77.52;100507.41;5038116;28;45583;-72
2023/07/28 09:36:12;;;;;;;;;1.00;0.00;;;;;22.25;77.37;100483.34;5037969;28;45337;-72
2023/07/28 09:38:42;;;;;;;;;1.25;0.00;;;;;22.45;77.51;100511.03;5038351;28;45530;-72
2023/07/28 09:41:10;;;;;;;;;0.00;0.00;;;;;22.46;77.54;100505.38;5020533;28;45436;-71
2023/07/28 09:43:40;;;;;;;;;1.00;1.00;;;;;22.43;76.65;100486.03;5037852;28;45755;-72
2023/07/28 09:46:07;;;;;;;;;2.00;0.00;;;;;22.58;76.33;100512.72;5020091;28;45535;-72
2023/07/28 09:48:34;;;;;;;;;0.25;0.25;;;;;22.61;76.88;100513.09;5038097;28;45361;-72
2023/07/28 09:51:09;;;;;;;;;0.00;0.00;;;;;22.57;76.61;100497.53;5038490;28;45426;-72
2023/07/28 09:53:40;;;;;;;;;0.00;0.00;;;;;22.26;76.32;100436.25;5037768;28;46444;-71
2023/07/28 09:56:08;;;;;;;;;3.50;3.50;;;;;22.77;75.92;100506.22;5036718;28;46109;-72
2023/07/28 09:58:37;;;;;;;;;0.00;0.00;;;;;22.77;75.71;100504.31;5038048;28;45403;-73
2023/07/28 10:01:05;;;;;;;;;0.00;0.00;;;;;22.46;75.78;100444.94;5038216;28;45396;-72
2023/07/28 10:03:32;;;;;;;;;1.00;1.00;;;;;22.75;75.59;100502.91;5019525;28;47919;-72
2023/07/28 10:05:57;;;;;;;;;0.00;0.00;;;;;22.69;75.63;100496.53;5037579;28;45333;-73
2023/07/28 10:08:24;;;;;;;;;1.25;0.00;;;;;22.61;75.90;100479.75;5038037;28;45562;-72
2023/07/28 10:10:52;;;;;;;;;2.00;2.00;;;;;22.37;75.74;100441.72;5037914;28;45317;-73
2023/07/28 10:13:22;;;;;;;;;1.00;1.00;;;;;22.81;76.09;100507.41;5037053;28;45986;-72
2023/07/28 10:15:48;;;;;;;;;2.50;1.00;;;;;22.83;76.65;100509.94;5019422;28;45510;-72
2023/07/28 10:18:13;;;;;;;;;2.00;2.00;;;;;22.64;75.42;100465.75;5037559;28;45257;-71
2023/07/28 10:20:42;;;;;;;;;2.00;1.50;;;;;22.84;76.95;100498.03;5037854;28;45189;-72
2023/07/28 10:23:11;;;;;;;;;0.00;0.00;;;;;22.94;76.67;100509.13;5037143;28;45787;-72
2023/07/28 10:25:38;;;;;;;;;0.00;0.00;;;;;22.86;76.93;100469.63;5035902;28;45435;-71
2023/07/28 10:28:05;;;;;;;;;1.00;1.00;;;;;23.05;76.74;100492.91;5035370;28;45234;-71
2023/07/28 10:30:50;;;;;;;;;0.00;0.00;;;;;23.10;76.19;100485.97;5019715;28;45358;-73
2023/07/28 10:33:36;;;;;;;;;3.00;1.00;;;;;23.19;76.70;100476.41;5037578;28;46074;-73
2023/07/28 10:36:22;;;;;;;;;0.75;0.75;;;;;23.40;75.63;100491.31;5037213;28;45451;-72
2023/07/28 10:39:16;;;;;;;;;1.50;1.50;;;;;23.47;75.93;100497.47;5037422;28;45556;-72
2023/07/28 10:42:11;;;;;;;;;0.25;0.25;;;;;23.49;75.93;100479.06;5035380;28;45265;-72
2023/07/28 10:44:37;;;;;;;;;1.25;1.25;;;;;23.43;75.11;100455.59;5022882;28;64973;-73
2023/07/28 10:47:08;;;;;;;;;1.00;1.00;;;;;23.59;76.70;100463.03;5037052;28;45430;-71
2023/07/28 10:49:34;;;;;;;;;3.25;3.00;;;;;23.44;75.17;100422.78;5018853;28;45318;-72
2023/07/28 10:51:59;;;;;;;;;1.50;1.00;;;;;23.79;74.48;100460.78;5036687;28;45472;-72
2023/07/28 10:54:25;;;;;;;;;2.00;2.00;;;;;23.85;74.31;100453.59;5036352;28;46994;-72
2023/07/28 10:56:50;;;;;;;;;1.50;1.00;;;;;23.58;73.88;100390.81;5035986;28;45453;-72
2023/07/28 10:59:16;;;;;;;;;1.00;1.00;;;;;24.03;73.57;100453.44;5036523;28;45606;-72
2023/07/28 11:01:42;;;;;;;;;1.75;1.75;;;;;23.95;73.34;100441.03;5036574;28;45494;-71
2023/07/28 11:04:17;;;;;;;;;0.75;0.75;;;;;24.19;73.23;100462.72;5036101;28;45765;-72
2023/07/28 11:06:50;;;;;;;;;1.00;1.00;;;;;24.25;72.61;100462.59;5036199;28;45478;-73
2023/07/28 11:09:23;;;;;;;;;1.00;1.00;;;;;24.29;72.03;100459.41;5018293;28;45331;-72
2023/07/28 11:11:50;;;;;;;;;1.00;1.00;;;;;24.27;71.49;100467.78;5018166;28;45610;-71
2023/07/28 11:14:17;;;;;;;;;1.00;1.00;;;;;23.91;71.97;100401.88;5035772;28;46380;-70
2023/07/28 11:16:44;;;;;;;;;2.00;0.75;;;;;23.93;71.61;100410.59;5036109;28;45327;-71
2023/07/28 11:19:19;;;;;;;;;2.00;0.00;;;;;24.13;71.60;100458.25;5036296;28;45431;-72
2023/07/28 11:21:50;;;;;;;;;0.00;0.00;;;;;24.24;72.05;100460.13;5036547;28;45449;-71
2023/07/28 11:24:18;;;;;;;;;1.00;1.00;;;;;24.29;71.56;100462.97;5034403;28;47644;-73